Aeroporto :
LOGIN :

Iscrizione | Disclaimer

   EN    FR    IT 

 










Sommario :    VFR   VFR Marginale   IFR   IFR Intensivo   IFR Molto Intensivo
Visibilità : 
Base nubi : 
>= 8 km
>= 3000ft
5 / 8 km
1000 / 3000 ft
1500m / 5 km
500 / 1000 ft
800 / 1500m
200 / 500 ft
< 800m
< 200 ft
Simboli :   Temporali  Nebbia  Neve Forte  Precipitazioni Forti  Vento > 20 kt
SIGMETs :   Varie  Temporali  Ghiacco  Turbolenza  Onda orograficha  Ceneri Vulcaniche






- Altitudine del aeroporto : 1416 ft
- Codice IATA : ZRH


LSZH - Zurich

ULTIMO METAR :
  • 042120Z 20008KT 6000 -SHRA FEW027 SCT035 BKN050 11/10 Q1000 TEMPO SHRA

METARs OBSOLETI :
  • 042050Z 21006KT 180V240 9000 -SHRA SCT030 BKN038 12/09 Q1000 TEMPO SHRA
  • 042020Z 21005KT 9999 FEW035 SCT043 BKN050 12/10 Q0999 TEMPO SHRA
  • 041950Z 20006KT 9999 FEW038 SCT043 BKN050 12/10 Q0999 RESHRA TEMPO SHRA
  • 041920Z 21006KT 170V250 9999 -SHRA FEW036TCU SCT055 BKN060 13/10 Q0999 NOSIG
  • 041850Z 19008KT 9999 FEW036CB SCT055 BKN065 13/10 Q0998 TEMPO TSRA

TAF TAF LSZH
Valido dal 04 a 21 ore il 06 a 03 ore UTC


042025Z 0421/0603 19005KT 9999 FEW025 SCT030 BKN045 TX15/0514Z TN11/0505Z
TEMPO 0421/0423 4500 SHRA
BECMG 0506/0509 24010KT
TEMPO 0506/0515 SHRA
TEMPO 0512/0521 24015G28KT
ATIS : +41 43 816 2295 (DEP) +41 43 816 2294 (ARR)



MetMap, La meteo Aeronautica in un colpo d'occhio ! - Copyright ORBIFLY Dicembre 2007 - Disclaimer

ORBIFLY MET'MAP TEAM :

Programmazione e sviluppo : Alexandra Zaïnal
Concezione : Baudouin d'Aumeries
Aiuto per la programmazione : Marc-Olivier Méhu
Supporto tecnico e logistico : Manuel Goepfert
Aiuto per la traduzione : Arnaldo La Scala

Contatto : metmap@orbifly.com




FONTI E CREDITI :

   NOAA